Terminal Aerodrome Forecast
Issued by NWS

Home | Current Version | Previous Version | Text Only | Print | Product List | Glossary On
Versions: 1 2 3 4 5 6 7 8 9 10 11 12 13 14 15 16
000
FTUS44 KTSA 290911 AAA
TAFBVO
TAF AMD
KBVO 290911Z 2909/3006 00000KT P6SM BKN250
      TEMPO 2910/2913 4SM BR
     FM291300 05003KT P6SM VCTS SCT040CB BKN250
     FM292100 12004KT P6SM SCT050 BKN250 PROB30 2921/3002 5SM -TSRA
      BKN050CB=

USA.gov is the U.S. government's official web portal to all federal, state and local government web resources and services.